createdAt,value
2018-12-04T09:25:07.097Z,15.47
2018-12-04T09:26:07.056Z,15.37
2018-12-04T09:27:07.067Z,15.36
2018-12-04T09:28:07.054Z,15.47
2018-12-04T09:29:07.037Z,15.55
2018-12-04T09:30:07.015Z,15.52
2018-12-04T09:31:06.979Z,15.49
2018-12-04T09:32:07.001Z,15.47
2018-12-04T09:33:06.963Z,15.49
2018-12-04T09:34:06.951Z,15.36
2018-12-04T09:35:07.066Z,15.22
2018-12-04T09:36:06.920Z,15.14
2018-12-04T09:37:06.912Z,15.06
2018-12-04T09:38:06.922Z,15.04
2018-12-04T09:39:06.892Z,15.00
2018-12-04T09:40:06.898Z,15.00
2018-12-04T09:41:50.119Z,14.92
2018-12-04T09:42:50.135Z,14.81
2018-12-04T09:43:50.120Z,14.77
2018-12-04T09:44:50.085Z,14.81
2018-12-04T09:45:50.075Z,14.79
2018-12-04T09:46:50.080Z,14.89
2018-12-04T09:47:50.052Z,14.82
2018-12-04T09:48:50.073Z,14.79
2018-12-04T09:49:50.061Z,14.97
2018-12-04T09:50:50.021Z,14.97
2018-12-04T09:51:50.016Z,15.09
2018-12-04T09:52:50.002Z,15.28
2018-12-04T09:53:52.178Z,15.42
2018-12-04T09:54:49.983Z,15.35
2018-12-04T09:55:50.050Z,15.28
2018-12-04T09:56:49.949Z,15.18
2018-12-04T09:57:49.943Z,14.92
2018-12-04T09:58:49.954Z,14.77
2018-12-04T09:59:49.917Z,14.51
2018-12-04T10:00:49.936Z,14.45
2018-12-04T10:01:49.912Z,14.44
2018-12-04T10:02:49.881Z,14.50
2018-12-04T10:03:49.880Z,14.51
2018-12-04T10:04:49.872Z,14.43
2018-12-04T10:05:49.888Z,14.41
2018-12-04T10:06:49.855Z,14.26
2018-12-04T10:07:49.823Z,14.04
2018-12-04T10:08:49.817Z,13.99
2018-12-04T10:09:49.802Z,14.00
2018-12-04T10:10:49.823Z,14.12
2018-12-04T10:11:49.834Z,14.30
2018-12-04T10:12:49.909Z,14.47
2018-12-04T10:13:49.760Z,14.77
2018-12-04T10:14:49.745Z,14.94
2018-12-04T10:15:49.790Z,15.04
2018-12-04T10:16:49.774Z,15.11
2018-12-04T10:17:49.731Z,15.17
2018-12-04T10:18:49.710Z,14.99
2018-12-04T10:19:49.688Z,14.79
2018-12-04T10:20:49.682Z,14.66
2018-12-04T10:21:51.486Z,14.63
2018-12-04T10:22:49.657Z,14.35
2018-12-04T10:23:49.709Z,14.28
2018-12-04T10:24:49.628Z,14.33
2018-12-04T10:25:49.660Z,14.23
2018-12-04T10:26:49.684Z,14.15
2018-12-04T10:27:49.608Z,14.17
2018-12-04T10:28:49.601Z,14.26
2018-12-04T10:29:50.004Z,14.30
2018-12-04T10:30:49.585Z,14.45
2018-12-04T10:31:55.787Z,14.48
2018-12-04T10:32:50.538Z,14.43
2018-12-04T10:33:49.533Z,14.40
2018-12-04T10:34:50.378Z,14.62
2018-12-04T10:35:49.653Z,14.92
2018-12-04T10:36:55.518Z,15.18
2018-12-04T10:37:49.482Z,15.36
2018-12-04T10:38:49.475Z,15.42
2018-12-04T10:39:49.489Z,15.06
2018-12-04T10:40:49.453Z,14.51
2018-12-04T10:41:49.453Z,14.37
2018-12-04T10:42:49.450Z,14.35
2018-12-04T10:43:49.411Z,14.20
2018-12-04T10:44:49.410Z,13.97
2018-12-04T10:45:49.393Z,13.81
2018-12-04T10:46:49.384Z,13.72
2018-12-04T10:47:49.404Z,13.68
2018-12-04T10:48:49.429Z,13.49
2018-12-04T10:49:49.373Z,13.28
2018-12-04T10:50:49.340Z,13.23
2018-12-04T10:51:49.332Z,13.09
2018-12-04T10:52:49.340Z,12.97
2018-12-04T10:53:49.301Z,12.76
2018-12-04T10:54:49.281Z,12.65
2018-12-04T10:55:49.296Z,12.64
2018-12-04T10:56:49.267Z,12.78
2018-12-04T10:57:49.310Z,12.93
2018-12-04T10:58:49.255Z,12.95
2018-12-04T10:59:49.251Z,12.95
2018-12-04T11:00:49.233Z,12.91
2018-12-04T11:01:49.220Z,12.85
2018-12-04T11:02:49.204Z,12.68
2018-12-04T11:03:49.189Z,12.80
2018-12-04T11:04:49.190Z,12.80
2018-12-04T11:05:49.152Z,12.83
2018-12-04T11:06:49.146Z,12.75
2018-12-04T11:07:49.149Z,12.61
2018-12-04T11:08:49.117Z,12.64
2018-12-04T11:09:49.152Z,12.57
2018-12-04T11:10:49.109Z,12.46
2018-12-04T11:11:49.089Z,12.31
2018-12-04T11:12:49.090Z,12.17
2018-12-04T11:13:49.067Z,12.06
2018-12-04T11:14:49.091Z,12.15
2018-12-04T11:15:49.042Z,12.09
2018-12-04T11:16:49.047Z,12.20
2018-12-04T11:17:49.014Z,11.95
2018-12-04T11:18:48.999Z,11.73
2018-12-04T11:19:49.027Z,11.57
2018-12-04T11:20:48.998Z,11.52
2018-12-04T11:21:48.982Z,11.41
2018-12-04T11:22:48.983Z,11.32
2018-12-04T11:23:48.948Z,11.14
2018-12-04T11:24:48.960Z,11.12
2018-12-04T11:25:48.914Z,11.05
2018-12-04T11:26:48.986Z,10.87
2018-12-04T11:27:48.973Z,10.93
2018-12-04T11:28:48.896Z,10.94
2018-12-04T11:29:48.860Z,10.75
2018-12-04T11:30:48.859Z,10.78
2018-12-04T11:31:48.901Z,10.74
2018-12-04T11:32:48.855Z,10.76
2018-12-04T11:33:48.814Z,10.74
2018-12-04T11:34:48.824Z,10.71
2018-12-04T11:35:48.825Z,10.71
2018-12-04T11:36:48.807Z,10.64
2018-12-04T11:37:48.799Z,10.64
2018-12-04T11:38:48.751Z,10.60
2018-12-04T11:39:48.755Z,10.57
2018-12-04T11:40:48.756Z,10.49
2018-12-04T11:41:48.728Z,10.51
2018-12-04T11:42:48.749Z,10.51
2018-12-04T11:43:48.690Z,10.60
2018-12-04T11:44:48.694Z,10.71
2018-12-04T11:45:48.689Z,10.67
2018-12-04T11:46:48.667Z,10.59
2018-12-04T11:47:48.684Z,10.59
2018-12-04T11:48:48.676Z,10.42
2018-12-04T11:49:48.628Z,10.44
2018-12-04T11:50:48.625Z,10.34
2018-12-04T11:51:48.591Z,10.30
2018-12-04T11:52:48.621Z,10.42
2018-12-04T11:53:48.606Z,10.30
2018-12-04T11:54:48.596Z,10.23
2018-12-04T11:55:48.611Z,10.28
2018-12-04T11:56:48.541Z,10.20
2018-12-04T11:57:48.549Z,10.16
2018-12-04T11:58:48.516Z,10.15
2018-12-04T11:59:48.496Z,10.20
2018-12-04T12:00:48.496Z,10.16
2018-12-04T12:01:48.468Z,10.05
2018-12-04T12:02:48.489Z,10.07
2018-12-04T12:03:48.450Z,10.04
2018-12-04T12:04:48.486Z,9.97
2018-12-04T12:05:48.436Z,9.99
2018-12-04T12:06:48.427Z,9.97
2018-12-04T12:07:48.429Z,9.87
2018-12-04T12:08:48.427Z,9.92
2018-12-04T12:09:48.392Z,9.95
2018-12-04T12:10:48.382Z,10.02
2018-12-04T12:11:48.347Z,10.01
2018-12-04T12:12:48.331Z,10.13
2018-12-04T12:13:48.322Z,10.20
2018-12-04T12:14:48.307Z,10.16
2018-12-04T12:15:48.345Z,10.15
2018-12-04T12:16:48.285Z,10.15
2018-12-04T12:17:48.271Z,10.19
2018-12-04T12:18:48.290Z,10.23
2018-12-04T12:19:48.249Z,10.25
2018-12-04T12:20:48.236Z,10.22
2018-12-04T12:21:48.225Z,10.20
2018-12-04T12:22:48.235Z,10.16
2018-12-04T12:23:48.205Z,10.31
2018-12-04T12:24:48.188Z,10.41
2018-12-04T12:25:48.178Z,10.54
2018-12-04T12:26:48.164Z,10.63
2018-12-04T12:27:48.190Z,10.69
2018-12-04T12:28:48.160Z,10.64
2018-12-04T12:29:51.469Z,10.61
2018-12-04T12:30:48.121Z,10.67
2018-12-04T12:31:48.099Z,10.64
2018-12-04T12:32:48.090Z,10.75
2018-12-04T12:33:48.113Z,10.87
2018-12-04T12:34:48.062Z,10.97
2018-12-04T12:35:48.058Z,11.41
2018-12-04T12:36:48.050Z,11.81
2018-12-04T12:37:48.026Z,12.28
2018-12-04T12:38:48.049Z,12.67
2018-12-04T12:39:48.004Z,13.13
2018-12-04T12:40:47.997Z,13.44
2018-12-04T12:41:47.976Z,13.83
2018-12-04T12:42:47.970Z,14.30
2018-12-04T12:43:47.975Z,14.55
2018-12-04T12:44:48.006Z,14.72
2018-12-04T12:45:47.937Z,14.99
2018-12-04T12:46:47.921Z,15.04
2018-12-04T12:47:47.905Z,15.18
2018-12-04T12:48:47.893Z,15.17
2018-12-04T12:49:47.910Z,15.18
2018-12-04T12:50:47.873Z,15.03
2018-12-04T12:51:47.865Z,14.91
2018-12-04T12:52:47.852Z,14.92
2018-12-04T12:53:47.837Z,14.79
2018-12-04T12:54:47.847Z,14.77
2018-12-04T12:55:47.839Z,14.68
2018-12-04T12:56:47.803Z,14.62
2018-12-04T12:57:47.784Z,14.28
2018-12-04T12:58:47.771Z,14.03
2018-12-04T12:59:47.791Z,13.59
2018-12-04T13:00:47.754Z,13.27
2018-12-04T13:01:47.747Z,13.01
2018-12-04T13:02:47.749Z,12.72
2018-12-04T13:03:47.719Z,12.45
2018-12-04T13:04:47.803Z,12.18
2018-12-04T13:05:47.722Z,11.88
2018-12-04T13:06:47.684Z,11.68
2018-12-04T13:07:47.664Z,11.50
2018-12-04T13:08:47.672Z,11.25
2018-12-04T13:09:47.652Z,11.07
2018-12-04T13:10:47.678Z,10.96
2018-12-04T13:11:47.624Z,10.76
2018-12-04T13:12:47.615Z,10.54
2018-12-04T13:13:47.607Z,10.42
2018-12-04T13:14:47.580Z,10.25
2018-12-04T13:15:47.610Z,10.16
2018-12-04T13:16:47.559Z,9.98
2018-12-04T13:17:47.556Z,9.83
2018-12-04T13:18:47.541Z,9.74
2018-12-04T13:19:47.530Z,9.56
2018-12-04T13:20:47.550Z,9.44
2018-12-04T13:21:47.497Z,9.41
2018-12-04T13:22:47.508Z,9.28
2018-12-04T13:23:47.471Z,9.25
2018-12-04T13:24:47.462Z,9.13
2018-12-04T13:25:47.455Z,8.99
2018-12-04T13:26:47.469Z,9.02
2018-12-04T13:27:47.444Z,8.84
2018-12-04T13:28:47.411Z,8.88
2018-12-04T13:29:47.402Z,8.78
2018-12-04T13:30:47.390Z,8.71
2018-12-04T13:31:47.409Z,8.64
2018-12-04T13:32:47.364Z,8.61
2018-12-04T13:33:47.381Z,8.60
2018-12-04T13:34:47.344Z,8.51
2018-12-04T13:35:47.331Z,8.45
2018-12-04T13:36:47.328Z,8.42
2018-12-04T13:37:47.336Z,8.28
2018-12-04T13:38:47.304Z,8.24
2018-12-04T13:39:47.282Z,8.28
2018-12-04T13:40:47.271Z,8.10
2018-12-04T13:41:47.284Z,8.12
2018-12-04T13:42:47.301Z,8.06
2018-12-04T13:43:47.238Z,7.95
2018-12-04T13:44:47.226Z,7.98
2018-12-04T13:45:47.265Z,7.90
2018-12-04T13:46:47.203Z,7.82
2018-12-04T13:47:47.203Z,7.76
2018-12-04T13:48:47.184Z,7.73
2018-12-04T13:49:47.194Z,7.66
2018-12-04T13:50:47.177Z,7.58
2018-12-04T13:51:47.154Z,7.69
2018-12-04T13:52:47.156Z,7.66
2018-12-04T13:53:47.128Z,7.61
2018-12-04T13:54:47.153Z,7.56
2018-12-04T13:55:47.107Z,7.56
2018-12-04T13:56:47.109Z,7.53
2018-12-04T13:57:50.705Z,7.51
2018-12-04T13:58:48.974Z,7.43
2018-12-04T13:59:47.206Z,7.45
2018-12-04T14:00:47.061Z,7.36
2018-12-04T14:01:47.101Z,7.36
2018-12-04T14:02:47.036Z,7.40
2018-12-04T14:03:47.007Z,7.38
2018-12-04T14:04:47.032Z,7.32
2018-12-04T14:05:47.008Z,7.36
2018-12-04T14:06:46.982Z,7.29
2018-12-04T14:07:46.963Z,7.32
2018-12-04T14:08:47.010Z,7.23
2018-12-04T14:09:46.942Z,7.28
2018-12-04T14:10:46.932Z,7.32
2018-12-04T14:11:46.915Z,7.24
2018-12-04T14:12:46.953Z,7.28
2018-12-04T14:13:46.923Z,7.23
2018-12-04T14:14:46.892Z,7.28
2018-12-04T14:15:46.896Z,7.25
2018-12-04T14:16:46.886Z,7.29
2018-12-04T14:17:46.850Z,7.28
2018-12-04T14:18:46.848Z,7.23
2018-12-04T14:19:46.854Z,7.29
2018-12-04T14:20:46.841Z,7.29
2018-12-04T14:21:46.805Z,7.21
2018-12-04T14:22:46.795Z,7.36
2018-12-04T14:23:46.779Z,7.23
2018-12-04T14:24:46.817Z,7.33
2018-12-04T14:25:46.768Z,7.29
2018-12-04T14:26:46.749Z,7.29
2018-12-04T14:27:49.237Z,7.32
2018-12-04T14:28:46.728Z,7.35
2018-12-04T14:29:46.759Z,7.33
2018-12-04T14:30:46.703Z,7.32
2018-12-04T14:31:46.699Z,7.25
2018-12-04T14:32:46.678Z,7.21
2018-12-04T14:33:46.693Z,7.20
2018-12-04T14:34:46.712Z,7.14
2018-12-04T14:35:46.673Z,7.15
2018-12-04T14:36:46.679Z,7.07
2018-12-04T14:37:46.621Z,7.05
2018-12-04T14:38:46.609Z,7.06
2018-12-04T14:39:46.637Z,6.97
2018-12-04T14:40:46.589Z,6.84
2018-12-04T14:41:46.574Z,6.82
2018-12-04T14:42:46.592Z,6.81
2018-12-04T14:43:46.556Z,6.62
2018-12-04T14:44:46.577Z,6.63
2018-12-04T14:45:46.548Z,6.57
2018-12-04T14:46:46.522Z,6.52
2018-12-04T14:47:46.520Z,6.45
2018-12-04T14:48:46.550Z,6.44
2018-12-04T14:49:46.512Z,6.35
2018-12-04T14:50:46.796Z,6.33
2018-12-04T14:51:46.492Z,6.31
2018-12-04T14:52:46.457Z,6.27
2018-12-04T14:53:46.541Z,6.24
2018-12-04T14:54:46.439Z,6.30
2018-12-04T14:55:46.489Z,6.12
2018-12-04T14:56:46.460Z,6.08
2018-12-04T14:57:46.402Z,6.08
2018-12-04T14:58:46.402Z,5.99
2018-12-04T14:59:46.415Z,5.99
2018-12-04T15:00:46.362Z,6.05
2018-12-04T15:01:46.475Z,5.87
2018-12-04T15:02:46.660Z,5.87
2018-12-04T15:03:46.460Z,5.86
2018-12-04T15:04:46.879Z,5.84
2018-12-04T15:05:46.374Z,5.79
2018-12-04T15:06:46.332Z,5.66
2018-12-04T15:07:46.306Z,5.66
2018-12-04T15:08:46.280Z,5.61
2018-12-04T15:09:46.291Z,5.68
2018-12-04T15:10:46.275Z,5.62
2018-12-04T15:11:46.279Z,5.64
2018-12-04T15:12:46.257Z,5.53
2018-12-04T15:13:46.253Z,5.53
2018-12-04T15:14:46.248Z,5.54
2018-12-04T15:15:46.201Z,5.43
2018-12-04T15:16:46.215Z,5.39
2018-12-04T15:17:46.319Z,5.43
2018-12-04T15:18:46.218Z,5.44
2018-12-04T15:19:46.180Z,5.29
2018-12-04T15:20:46.169Z,5.26
2018-12-04T15:21:46.161Z,5.23
2018-12-04T15:22:46.177Z,5.18
2018-12-04T15:23:46.145Z,5.14
2018-12-04T15:24:46.117Z,5.10
2018-12-04T15:25:46.173Z,5.04
2018-12-04T15:26:46.078Z,5.08
2018-12-04T15:27:46.087Z,5.04
2018-12-04T15:28:46.094Z,4.93
2018-12-04T15:29:46.047Z,4.94
2018-12-04T15:30:46.040Z,4.87
2018-12-04T15:31:46.037Z,4.82
2018-12-04T15:32:46.054Z,4.84
2018-12-04T15:33:46.045Z,4.78
2018-12-04T15:34:45.997Z,4.82
2018-12-04T15:35:46.030Z,4.71
2018-12-04T15:36:46.000Z,4.67
2018-12-04T15:37:45.990Z,4.67
2018-12-04T15:38:45.997Z,4.56
2018-12-04T15:39:45.984Z,4.55
2018-12-04T15:40:45.995Z,4.56
2018-12-04T15:41:46.323Z,4.52
2018-12-04T15:42:45.966Z,4.45
2018-12-04T15:43:45.970Z,4.37
2018-12-04T15:44:45.897Z,4.38
2018-12-04T15:45:45.916Z,4.37
2018-12-04T15:46:45.925Z,4.30
2018-12-04T15:47:45.886Z,4.32
2018-12-04T15:48:45.883Z,4.24
2018-12-04T15:49:45.911Z,4.20
2018-12-04T15:50:45.835Z,4.26
2018-12-04T15:51:45.833Z,4.24
2018-12-04T15:52:45.845Z,4.22
2018-12-04T15:53:45.850Z,4.20
2018-12-04T15:54:45.871Z,4.14
2018-12-04T15:55:45.785Z,4.12
2018-12-04T15:56:45.783Z,4.05
2018-12-04T15:57:45.771Z,4.06
2018-12-04T15:58:45.748Z,4.02
2018-12-04T15:59:45.765Z,3.91
2018-12-04T16:00:45.768Z,3.92
2018-12-04T16:01:45.722Z,3.98
2018-12-04T16:02:45.706Z,3.92
2018-12-04T16:03:45.705Z,3.92
2018-12-04T16:04:45.687Z,3.91
2018-12-04T16:05:45.707Z,3.86
2018-12-04T16:06:45.709Z,3.80
2018-12-04T16:07:45.657Z,3.87
2018-12-04T16:08:45.651Z,3.83
2018-12-04T16:09:45.638Z,3.84
2018-12-04T16:10:45.636Z,3.77
2018-12-04T16:11:45.718Z,3.76
2018-12-04T16:12:45.607Z,3.69
2018-12-04T16:13:45.605Z,3.73
2018-12-04T16:14:45.592Z,3.66
2018-12-04T16:15:45.582Z,3.69
2018-12-04T16:16:45.592Z,3.66
2018-12-04T16:17:45.562Z,3.65
2018-12-04T16:18:45.541Z,3.68
2018-12-04T16:19:45.532Z,3.66
2018-12-04T16:20:45.536Z,3.62
2018-12-04T16:21:45.538Z,3.58
2018-12-04T16:22:45.504Z,3.56
2018-12-04T16:23:45.503Z,3.51
2018-12-04T16:24:45.521Z,3.55
2018-12-04T16:25:45.509Z,3.53
2018-12-04T16:26:45.466Z,3.50
2018-12-04T16:27:45.450Z,3.48
2018-12-04T16:28:45.450Z,3.48
2018-12-04T16:29:45.430Z,3.55
2018-12-04T16:30:45.442Z,3.42
2018-12-04T16:31:45.415Z,3.40
2018-12-04T16:32:45.403Z,3.29
2018-12-04T16:33:45.389Z,3.31
2018-12-04T16:34:45.376Z,3.34
2018-12-04T16:35:45.391Z,3.29
2018-12-04T16:36:45.366Z,3.31
2018-12-04T16:37:45.353Z,3.32
2018-12-04T16:38:45.350Z,3.25
2018-12-04T16:39:45.364Z,3.22
2018-12-04T16:40:45.318Z,3.19
2018-12-04T16:41:45.307Z,3.22
2018-12-04T16:42:45.297Z,3.16
2018-12-04T16:43:45.285Z,3.21
2018-12-04T16:44:45.300Z,3.22
2018-12-04T16:45:45.263Z,3.05
2018-12-04T16:46:45.251Z,3.07
2018-12-04T16:47:45.244Z,3.11
2018-12-04T16:48:45.240Z,3.13
2018-12-04T16:49:45.251Z,3.03
2018-12-04T16:50:45.206Z,3.13
2018-12-04T16:51:45.199Z,3.07
2018-12-04T16:52:45.191Z,3.10
2018-12-04T16:53:45.174Z,3.13
2018-12-04T16:54:45.194Z,3.10
2018-12-04T16:55:45.155Z,3.10
2018-12-04T16:56:45.143Z,3.04
2018-12-04T16:57:45.132Z,3.07
2018-12-04T16:58:45.123Z,3.10
2018-12-04T16:59:45.139Z,3.05
2018-12-04T17:00:45.110Z,3.11
2018-12-04T17:01:45.090Z,3.11
2018-12-04T17:02:45.088Z,3.13
2018-12-04T17:03:45.114Z,3.10
2018-12-04T17:04:45.086Z,3.05
2018-12-04T17:05:45.079Z,3.08
2018-12-04T17:06:45.044Z,3.05
2018-12-04T17:07:45.037Z,3.11
2018-12-04T17:08:45.025Z,3.10
2018-12-04T17:09:45.004Z,3.05
2018-12-04T17:10:45.036Z,3.05
2018-12-04T17:11:44.982Z,3.08
2018-12-04T17:12:44.972Z,3.07
2018-12-04T17:13:44.968Z,3.07
2018-12-04T17:14:44.958Z,3.11
2018-12-04T17:15:44.973Z,3.16
2018-12-04T17:16:44.928Z,3.01
2018-12-04T17:17:44.918Z,3.13
2018-12-04T17:18:44.939Z,3.04
2018-12-04T17:19:44.897Z,3.05
2018-12-04T17:20:44.884Z,3.07
2018-12-04T17:21:44.910Z,3.08
2018-12-04T17:22:44.869Z,3.07
2018-12-04T17:23:44.858Z,3.10
2018-12-04T17:24:44.844Z,3.07
2018-12-04T17:25:44.864Z,3.05
2018-12-04T17:26:44.830Z,3.10
2018-12-04T17:27:44.809Z,3.10
2018-12-04T17:28:44.796Z,3.05
2018-12-04T17:29:44.797Z,3.00
2018-12-04T17:30:44.805Z,3.00
2018-12-04T17:31:44.798Z,3.03
2018-12-04T17:32:44.757Z,3.04
2018-12-04T17:33:44.775Z,3.08
2018-12-04T17:34:44.744Z,3.08
2018-12-04T17:35:44.719Z,3.05
2018-12-04T17:36:44.712Z,3.00
2018-12-04T17:37:44.706Z,3.00
2018-12-04T17:38:44.728Z,2.97
2018-12-04T17:39:44.679Z,2.98
2018-12-04T17:40:44.668Z,2.97
2018-12-04T17:41:44.682Z,3.01
2018-12-04T17:42:44.676Z,2.95
2018-12-04T17:43:44.638Z,2.98
2018-12-04T17:44:44.623Z,3.04
2018-12-04T17:45:44.613Z,3.05
2018-12-04T17:46:44.638Z,3.03
2018-12-04T17:47:44.597Z,3.04
2018-12-04T17:48:44.589Z,3.04
2018-12-04T17:49:44.580Z,3.01
2018-12-04T17:50:44.562Z,2.93
2018-12-04T17:51:44.581Z,2.97
2018-12-04T17:52:44.542Z,3.01
2018-12-04T17:53:44.537Z,2.87
2018-12-04T17:54:44.563Z,2.89
2018-12-04T17:55:44.512Z,2.85
2018-12-04T17:56:44.493Z,2.90
2018-12-04T17:57:44.492Z,2.89
2018-12-04T17:58:44.469Z,2.85
2018-12-04T17:59:44.487Z,2.93
2018-12-04T18:00:44.453Z,2.92
2018-12-04T18:01:44.445Z,2.75
2018-12-04T18:02:44.434Z,2.80
2018-12-04T18:03:44.424Z,2.77
2018-12-04T18:04:44.445Z,2.83
2018-12-04T18:05:44.420Z,2.79
2018-12-04T18:06:44.387Z,2.77
2018-12-04T18:07:44.372Z,2.75
2018-12-04T18:08:44.370Z,2.85
2018-12-04T18:09:44.360Z,2.72
2018-12-04T18:10:44.379Z,2.72
2018-12-04T18:11:44.327Z,2.74
2018-12-04T18:12:44.321Z,2.75
2018-12-04T18:13:44.312Z,2.75
2018-12-04T18:14:44.298Z,2.71
2018-12-04T18:15:44.316Z,2.77
2018-12-04T18:16:44.296Z,2.77
2018-12-04T18:17:44.271Z,2.82
2018-12-04T18:18:44.256Z,2.93
2018-12-04T18:19:44.241Z,2.93
2018-12-04T18:20:44.264Z,2.90
2018-12-04T18:21:44.221Z,2.86
2018-12-04T18:22:44.222Z,3.01
2018-12-04T18:23:44.196Z,3.03
2018-12-04T18:24:44.184Z,2.92
2018-12-04T18:25:44.202Z,2.97
2018-12-04T18:26:44.168Z,2.97
2018-12-04T18:27:44.155Z,3.04
2018-12-04T18:28:44.150Z,3.03
2018-12-04T18:29:44.164Z,3.05
2018-12-04T18:30:44.143Z,2.97
2018-12-04T18:31:44.106Z,3.07
2018-12-04T18:32:44.103Z,2.93
2018-12-04T18:33:44.085Z,3.00
2018-12-04T18:34:44.081Z,2.95
2018-12-04T18:35:44.184Z,2.98
2018-12-04T18:36:44.057Z,2.87
2018-12-04T18:37:44.040Z,2.92
2018-12-04T18:38:44.033Z,2.92
2018-12-04T18:39:44.028Z,2.89
2018-12-04T18:40:44.044Z,2.92
2018-12-04T18:41:44.005Z,2.90
2018-12-04T18:42:43.993Z,2.90
2018-12-04T18:43:44.025Z,2.93
2018-12-04T18:44:43.968Z,2.89
2018-12-04T18:45:43.963Z,2.86
2018-12-04T18:46:43.943Z,2.80
2018-12-04T18:47:43.937Z,2.77
2018-12-04T18:48:43.957Z,2.82
2018-12-04T18:49:43.917Z,2.83
2018-12-04T18:50:43.909Z,2.74
2018-12-04T18:51:43.920Z,2.75
2018-12-04T18:52:43.886Z,2.80
2018-12-04T18:53:43.875Z,2.74
2018-12-04T18:54:43.862Z,2.69
2018-12-04T18:55:43.857Z,2.79
2018-12-04T18:56:43.866Z,2.71
2018-12-04T18:57:43.845Z,2.80
2018-12-04T18:58:43.812Z,2.75
2018-12-04T18:59:43.805Z,2.72
2018-12-04T19:00:43.793Z,2.71
2018-12-04T19:01:43.785Z,2.69
2018-12-04T19:02:43.802Z,2.72
2018-12-04T19:03:43.758Z,2.72
2018-12-04T19:04:43.746Z,2.72
2018-12-04T19:05:43.742Z,2.67
2018-12-04T19:06:43.745Z,2.64
2018-12-04T19:07:43.746Z,2.67
2018-12-04T19:08:43.702Z,2.67
2018-12-04T19:09:43.692Z,2.65
2018-12-04T19:10:43.680Z,2.62
2018-12-04T19:11:43.670Z,2.64
2018-12-04T19:12:43.690Z,2.67
2018-12-04T19:13:43.651Z,2.68
2018-12-04T19:14:43.649Z,2.69
2018-12-04T19:15:43.627Z,2.65
2018-12-04T19:16:43.617Z,2.61
2018-12-04T19:17:43.654Z,2.65
2018-12-04T19:18:43.596Z,2.62
2018-12-04T19:19:43.585Z,2.67
2018-12-04T19:20:43.565Z,2.60
2018-12-04T19:21:43.562Z,2.64
2018-12-04T19:22:43.579Z,2.60
2018-12-04T19:23:43.557Z,2.65
2018-12-04T19:24:43.521Z,2.54
2018-12-04T19:25:43.520Z,2.54
2018-12-04T19:26:43.510Z,2.53
2018-12-04T19:27:43.495Z,2.50
2018-12-04T19:28:43.512Z,2.51
2018-12-04T19:29:43.466Z,2.56
2018-12-04T19:30:43.457Z,2.46
2018-12-04T19:31:43.448Z,2.60
2018-12-04T19:32:43.467Z,2.44
2018-12-04T19:33:43.432Z,2.46
2018-12-04T19:34:43.418Z,2.49
2018-12-04T19:35:43.419Z,2.44
2018-12-04T19:36:43.388Z,2.56
2018-12-04T19:37:43.410Z,2.42
2018-12-04T19:38:43.370Z,2.39
2018-12-04T19:39:43.353Z,2.50
2018-12-04T19:40:43.345Z,2.44
2018-12-04T19:41:43.345Z,2.49
2018-12-04T19:42:43.346Z,2.38
2018-12-04T19:43:43.313Z,2.39
2018-12-04T19:44:43.306Z,2.42
2018-12-04T19:45:43.288Z,2.43
2018-12-04T19:46:43.320Z,2.38
2018-12-04T19:47:43.269Z,2.26
2018-12-04T19:48:43.266Z,2.25
2018-12-04T19:49:43.243Z,2.32
2018-12-04T19:50:43.237Z,2.29
2018-12-04T19:51:43.282Z,2.32
2018-12-04T19:52:43.211Z,2.26
2018-12-04T19:53:43.198Z,2.20
2018-12-04T19:54:43.194Z,2.17
2018-12-04T19:55:43.193Z,2.14
2018-12-04T19:56:43.199Z,2.13
2018-12-04T19:57:43.160Z,2.14
2018-12-04T19:58:43.145Z,2.14
2018-12-04T19:59:43.131Z,2.14
2018-12-04T20:00:43.120Z,2.11
2018-12-04T20:01:43.133Z,2.11
2018-12-04T20:02:43.105Z,2.11
2018-12-04T20:03:43.135Z,2.10
2018-12-04T20:04:43.107Z,2.04
2018-12-04T20:05:43.067Z,2.04
2018-12-04T20:06:43.057Z,2.02
2018-12-04T20:07:43.049Z,2.08
2018-12-04T20:08:43.031Z,2.00
2018-12-04T20:09:43.066Z,1.97
2018-12-04T20:10:43.019Z,1.91
2018-12-04T20:11:43.005Z,1.87
2018-12-04T20:12:42.988Z,1.81
2018-12-04T20:13:42.981Z,1.89
2018-12-04T20:14:42.989Z,1.87
2018-12-04T20:15:42.959Z,1.81
2018-12-04T20:16:42.947Z,1.85
2018-12-04T20:17:42.932Z,1.81
2018-12-04T20:18:42.935Z,1.89
2018-12-04T20:19:42.940Z,1.85
2018-12-04T20:20:42.904Z,1.76
2018-12-04T20:21:42.889Z,1.84
2018-12-04T20:22:42.878Z,1.89
2018-12-04T20:23:42.864Z,1.78
2018-12-04T20:24:42.881Z,1.81
2018-12-04T20:25:42.876Z,1.92
2018-12-04T20:26:42.834Z,1.92
2018-12-04T20:27:42.821Z,1.76
2018-12-04T20:28:42.829Z,1.77
2018-12-04T20:29:42.799Z,1.81
2018-12-04T20:30:42.816Z,1.73
2018-12-04T20:31:42.804Z,1.77
2018-12-04T20:32:42.772Z,1.74
2018-12-04T20:33:42.756Z,1.78
2018-12-04T20:34:42.743Z,1.70
2018-12-04T20:35:42.762Z,1.63
2018-12-04T20:36:42.724Z,1.68
2018-12-04T20:37:42.710Z,1.58
2018-12-04T20:38:42.705Z,1.56
2018-12-04T20:39:42.720Z,1.63
2018-12-04T20:40:42.682Z,1.55
2018-12-04T20:41:42.664Z,1.53
2018-12-04T20:42:42.659Z,1.68
2018-12-04T20:43:42.644Z,1.67
2018-12-04T20:44:42.663Z,1.71
2018-12-04T20:45:42.631Z,1.63
2018-12-04T20:46:42.627Z,1.68
2018-12-04T20:47:42.625Z,1.66
2018-12-04T20:48:42.593Z,1.73
2018-12-04T20:49:42.606Z,1.63
2018-12-04T20:50:42.571Z,1.62
2018-12-04T20:51:42.560Z,1.63
2018-12-04T20:52:42.579Z,1.60
2018-12-04T20:53:42.550Z,1.66
2018-12-04T20:54:42.521Z,1.68
2018-12-04T20:55:42.516Z,1.58
2018-12-04T20:56:42.511Z,1.52
2018-12-04T20:57:42.518Z,1.63
2018-12-04T20:58:42.488Z,1.52
2018-12-04T20:59:42.469Z,1.49
2018-12-04T21:00:42.463Z,1.48
2018-12-04T21:01:42.444Z,1.44
2018-12-04T21:02:42.462Z,1.52
2018-12-04T21:03:42.424Z,1.48
2018-12-04T21:04:42.433Z,1.42
2018-12-04T21:05:42.411Z,1.44
2018-12-04T21:06:42.419Z,1.48
2018-12-04T21:07:42.385Z,1.48
2018-12-04T21:08:42.366Z,1.44
2018-12-04T21:09:42.353Z,1.52
2018-12-04T21:10:42.341Z,1.48
2018-12-04T21:11:42.359Z,1.50
2018-12-04T21:12:42.332Z,1.40
2018-12-04T21:13:42.308Z,1.44
2018-12-04T21:14:42.298Z,1.42
2018-12-04T21:15:42.290Z,1.49
2018-12-04T21:16:42.301Z,1.40
2018-12-04T21:17:42.265Z,1.49
2018-12-04T21:18:42.309Z,1.42
2018-12-04T21:19:42.339Z,1.38
2018-12-04T21:20:42.245Z,1.31
2018-12-04T21:21:42.253Z,1.32
2018-12-04T21:22:42.217Z,1.34
2018-12-04T21:23:42.202Z,1.35
2018-12-04T21:24:42.195Z,1.44
2018-12-04T21:25:42.183Z,1.40
2018-12-04T21:26:42.213Z,1.42
2018-12-04T21:27:42.155Z,1.38
2018-12-04T21:28:42.150Z,1.44
2018-12-04T21:29:42.136Z,1.44
2018-12-04T21:30:42.126Z,1.48
2018-12-04T21:31:42.146Z,1.45
2018-12-04T21:32:42.111Z,1.44
2018-12-04T21:33:42.090Z,1.45
2018-12-04T21:34:48.189Z,1.35
2018-12-04T21:35:43.070Z,1.48
2018-12-04T21:36:42.081Z,1.50
2018-12-04T21:37:42.044Z,1.52
2018-12-04T21:38:42.032Z,1.45
2018-12-04T21:39:42.045Z,1.52
2018-12-04T21:40:42.017Z,1.48
2018-12-04T21:41:41.998Z,1.52
2018-12-04T21:42:41.986Z,1.52
2018-12-04T21:43:42.002Z,1.48
2018-12-04T21:44:41.964Z,1.40
2018-12-04T21:45:41.970Z,1.45
2018-12-04T21:46:41.957Z,1.45
2018-12-04T21:47:41.937Z,1.45
2018-12-04T21:48:41.919Z,1.48
2018-12-04T21:49:41.933Z,1.49
2018-12-04T21:50:41.936Z,1.45
2018-12-04T21:51:41.892Z,1.50
2018-12-04T21:52:41.875Z,1.49
2018-12-04T21:53:41.864Z,1.52
2018-12-04T21:54:41.857Z,1.66
2018-12-04T21:55:41.869Z,1.58
2018-12-04T21:56:41.843Z,1.60
2018-12-04T21:57:41.831Z,1.60
2018-12-04T21:58:41.814Z,1.60
2018-12-04T21:59:41.813Z,1.60
2018-12-04T22:00:41.816Z,1.63
2018-12-04T22:01:41.808Z,1.67
2018-12-04T22:02:41.773Z,1.66
2018-12-04T22:03:41.760Z,1.67
2018-12-04T22:04:41.771Z,1.66
2018-12-04T22:05:41.732Z,1.66
2018-12-04T22:06:41.718Z,1.66
2018-12-04T22:07:41.798Z,1.66
2018-12-04T22:08:41.708Z,1.70
2018-12-04T22:09:41.687Z,1.71
2018-12-04T22:10:41.679Z,1.63
2018-12-04T22:11:41.662Z,1.67
2018-12-04T22:12:41.678Z,1.70
2018-12-04T22:13:41.645Z,1.63
2018-12-04T22:14:41.641Z,1.58
2018-12-04T22:15:41.619Z,1.62
2018-12-04T22:16:41.608Z,1.60
2018-12-04T22:17:41.627Z,1.68
2018-12-04T22:18:41.583Z,1.67
2018-12-04T22:19:41.574Z,1.63
2018-12-04T22:20:41.565Z,1.63
2018-12-04T22:21:41.563Z,1.59
2018-12-04T22:22:41.578Z,1.60
2018-12-04T22:23:41.545Z,1.56
2018-12-04T22:24:41.526Z,1.63
2018-12-04T22:25:41.510Z,1.52
2018-12-04T22:26:41.496Z,1.58
2018-12-04T22:27:41.540Z,1.56
2018-12-04T22:28:41.479Z,1.59
2018-12-04T22:29:41.463Z,1.55
2018-12-04T22:30:41.459Z,1.63
2018-12-04T22:31:41.448Z,1.52
2018-12-04T22:32:41.467Z,1.55
2018-12-04T22:33:41.418Z,1.55
2018-12-04T22:34:41.406Z,1.48
2018-12-04T22:35:41.412Z,1.56